sensor_id;sensor_type;location;lat;lon;timestamp;temperature;humidity
40374;DHT22;26079;45.958;12.492;2023-07-20T00:00:29;22.00;99.90
40374;DHT22;26079;45.958;12.492;2023-07-20T00:03:13;22.00;99.90
40374;DHT22;26079;45.958;12.492;2023-07-20T00:05:43;22.10;99.90
40374;DHT22;26079;45.958;12.492;2023-07-20T00:08:08;22.10;99.90
40374;DHT22;26079;45.958;12.492;2023-07-20T00:10:34;22.10;99.90
40374;DHT22;26079;45.958;12.492;2023-07-20T00:13:00;22.10;99.90
40374;DHT22;26079;45.958;12.492;2023-07-20T00:15:25;22.10;99.90
40374;DHT22;26079;45.958;12.492;2023-07-20T00:17:51;22.10;99.90
40374;DHT22;26079;45.958;12.492;2023-07-20T00:20:17;22.00;99.90
40374;DHT22;26079;45.958;12.492;2023-07-20T00:22:43;22.00;99.90
40374;DHT22;26079;45.958;12.492;2023-07-20T00:25:09;22.00;99.90
40374;DHT22;26079;45.958;12.492;2023-07-20T00:27:37;22.00;99.90
40374;DHT22;26079;45.958;12.492;2023-07-20T00:30:04;22.10;99.90
40374;DHT22;26079;45.958;12.492;2023-07-20T00:32:30;22.10;99.90
40374;DHT22;26079;45.958;12.492;2023-07-20T00:34:55;22.10;99.90
40374;DHT22;26079;45.958;12.492;2023-07-20T00:37:21;22.10;99.90
40374;DHT22;26079;45.958;12.492;2023-07-20T00:39:47;22.00;99.90
40374;DHT22;26079;45.958;12.492;2023-07-20T00:42:12;22.10;99.90
40374;DHT22;26079;45.958;12.492;2023-07-20T00:44:38;22.10;99.90
40374;DHT22;26079;45.958;12.492;2023-07-20T00:47:05;22.10;99.90
40374;DHT22;26079;45.958;12.492;2023-07-20T00:49:31;22.00;99.90
40374;DHT22;26079;45.958;12.492;2023-07-20T00:51:58;22.10;99.90
40374;DHT22;26079;45.958;12.492;2023-07-20T00:54:24;22.10;99.90
40374;DHT22;26079;45.958;12.492;2023-07-20T00:56:53;22.20;99.90
40374;DHT22;26079;45.958;12.492;2023-07-20T00:59:19;22.20;99.90
40374;DHT22;26079;45.958;12.492;2023-07-20T01:01:44;22.20;99.90
40374;DHT22;26079;45.958;12.492;2023-07-20T01:04:10;22.20;99.90
40374;DHT22;26079;45.958;12.492;2023-07-20T01:06:48;22.20;99.90
40374;DHT22;26079;45.958;12.492;2023-07-20T01:09:42;22.20;99.90
40374;DHT22;26079;45.958;12.492;2023-07-20T01:15:23;22.10;99.90
40374;DHT22;26079;45.958;12.492;2023-07-20T01:17:49;22.10;99.90
40374;DHT22;26079;45.958;12.492;2023-07-20T01:20:17;22.10;99.90
40374;DHT22;26079;45.958;12.492;2023-07-20T01:33:38;22.00;99.90
40374;DHT22;26079;45.958;12.492;2023-07-20T01:36:07;22.10;99.90
40374;DHT22;26079;45.958;12.492;2023-07-20T01:38:34;22.00;99.90
40374;DHT22;26079;45.958;12.492;2023-07-20T01:41:00;22.00;99.90
40374;DHT22;26079;45.958;12.492;2023-07-20T01:43:26;22.10;99.90
40374;DHT22;26079;45.958;12.492;2023-07-20T01:45:52;22.10;99.90
40374;DHT22;26079;45.958;12.492;2023-07-20T01:48:17;22.10;99.90
40374;DHT22;26079;45.958;12.492;2023-07-20T01:50:43;22.10;99.90
40374;DHT22;26079;45.958;12.492;2023-07-20T01:53:09;22.10;99.90
40374;DHT22;26079;45.958;12.492;2023-07-20T01:55:35;22.20;99.90
40374;DHT22;26079;45.958;12.492;2023-07-20T01:58:01;22.20;99.90
40374;DHT22;26079;45.958;12.492;2023-07-20T02:00:27;22.20;99.90
40374;DHT22;26079;45.958;12.492;2023-07-20T02:02:53;22.20;99.90
40374;DHT22;26079;45.958;12.492;2023-07-20T02:05:18;22.30;99.90
40374;DHT22;26079;45.958;12.492;2023-07-20T02:07:44;22.20;99.90
40374;DHT22;26079;45.958;12.492;2023-07-20T02:10:10;22.20;99.90
40374;DHT22;26079;45.958;12.492;2023-07-20T02:12:36;22.20;99.90
40374;DHT22;26079;45.958;12.492;2023-07-20T02:15:02;22.20;99.90
40374;DHT22;26079;45.958;12.492;2023-07-20T02:17:28;22.10;99.90
40374;DHT22;26079;45.958;12.492;2023-07-20T02:19:55;22.00;99.90
40374;DHT22;26079;45.958;12.492;2023-07-20T02:22:21;22.00;99.90
40374;DHT22;26079;45.958;12.492;2023-07-20T02:24:47;22.00;99.90
40374;DHT22;26079;45.958;12.492;2023-07-20T02:27:13;22.00;99.90
40374;DHT22;26079;45.958;12.492;2023-07-20T02:29:41;22.00;99.90
40374;DHT22;26079;45.958;12.492;2023-07-20T02:32:07;22.00;99.90
40374;DHT22;26079;45.958;12.492;2023-07-20T02:34:33;21.80;99.90
40374;DHT22;26079;45.958;12.492;2023-07-20T02:36:59;21.70;99.90
40374;DHT22;26079;45.958;12.492;2023-07-20T02:39:27;21.60;99.90
40374;DHT22;26079;45.958;12.492;2023-07-20T02:41:53;21.60;99.90
40374;DHT22;26079;45.958;12.492;2023-07-20T02:44:19;21.50;99.90
40374;DHT22;26079;45.958;12.492;2023-07-20T02:46:45;21.50;99.90
40374;DHT22;26079;45.958;12.492;2023-07-20T02:49:11;21.60;99.90
40374;DHT22;26079;45.958;12.492;2023-07-20T02:51:37;21.60;99.90
40374;DHT22;26079;45.958;12.492;2023-07-20T02:54:03;21.60;99.90
40374;DHT22;26079;45.958;12.492;2023-07-20T02:56:29;21.50;99.90
40374;DHT22;26079;45.958;12.492;2023-07-20T02:58:55;21.50;99.90
40374;DHT22;26079;45.958;12.492;2023-07-20T03:01:20;21.50;99.90
40374;DHT22;26079;45.958;12.492;2023-07-20T03:03:46;21.50;99.90
40374;DHT22;26079;45.958;12.492;2023-07-20T03:06:16;21.50;99.90
40374;DHT22;26079;45.958;12.492;2023-07-20T03:08:43;21.50;99.90
40374;DHT22;26079;45.958;12.492;2023-07-20T03:11:17;21.60;99.90
40374;DHT22;26079;45.958;12.492;2023-07-20T03:13:44;21.50;99.90
40374;DHT22;26079;45.958;12.492;2023-07-20T03:16:14;21.40;99.90
40374;DHT22;26079;45.958;12.492;2023-07-20T03:18:44;21.40;99.90
40374;DHT22;26079;45.958;12.492;2023-07-20T03:21:11;21.30;99.90
40374;DHT22;26079;45.958;12.492;2023-07-20T03:23:37;21.30;99.90
40374;DHT22;26079;45.958;12.492;2023-07-20T03:26:03;21.20;99.90
40374;DHT22;26079;45.958;12.492;2023-07-20T03:28:29;21.20;99.90
40374;DHT22;26079;45.958;12.492;2023-07-20T03:30:59;21.20;99.90
40374;DHT22;26079;45.958;12.492;2023-07-20T03:33:29;21.20;99.90
40374;DHT22;26079;45.958;12.492;2023-07-20T03:35:56;21.20;99.90
40374;DHT22;26079;45.958;12.492;2023-07-20T03:38:23;21.20;99.90
40374;DHT22;26079;45.958;12.492;2023-07-20T03:40:52;21.20;99.90
40374;DHT22;26079;45.958;12.492;2023-07-20T03:43:18;21.20;99.90
40374;DHT22;26079;45.958;12.492;2023-07-20T03:45:44;21.20;99.90
40374;DHT22;26079;45.958;12.492;2023-07-20T03:48:11;21.20;99.90
40374;DHT22;26079;45.958;12.492;2023-07-20T03:50:37;21.20;99.90
40374;DHT22;26079;45.958;12.492;2023-07-20T03:53:03;21.20;99.90
40374;DHT22;26079;45.958;12.492;2023-07-20T03:55:29;21.20;99.90
40374;DHT22;26079;45.958;12.492;2023-07-20T03:57:54;21.20;99.90
40374;DHT22;26079;45.958;12.492;2023-07-20T04:00:20;21.20;99.90
40374;DHT22;26079;45.958;12.492;2023-07-20T04:02:46;21.10;99.90
40374;DHT22;26079;45.958;12.492;2023-07-20T04:05:12;21.10;99.90
40374;DHT22;26079;45.958;12.492;2023-07-20T04:07:37;21.00;99.90
40374;DHT22;26079;45.958;12.492;2023-07-20T04:10:03;21.00;99.90
40374;DHT22;26079;45.958;12.492;2023-07-20T04:12:29;21.10;99.90
40374;DHT22;26079;45.958;12.492;2023-07-20T04:14:55;21.20;99.90
40374;DHT22;26079;45.958;12.492;2023-07-20T04:17:21;21.20;99.90
40374;DHT22;26079;45.958;12.492;2023-07-20T04:19:46;21.20;99.90
40374;DHT22;26079;45.958;12.492;2023-07-20T04:22:12;21.20;99.90
40374;DHT22;26079;45.958;12.492;2023-07-20T04:24:44;21.20;99.90
40374;DHT22;26079;45.958;12.492;2023-07-20T04:27:09;21.20;99.90
40374;DHT22;26079;45.958;12.492;2023-07-20T04:29:35;21.10;99.90
40374;DHT22;26079;45.958;12.492;2023-07-20T04:32:01;21.10;99.90
40374;DHT22;26079;45.958;12.492;2023-07-20T04:34:26;21.10;99.90
40374;DHT22;26079;45.958;12.492;2023-07-20T04:36:52;21.00;99.90
40374;DHT22;26079;45.958;12.492;2023-07-20T04:39:18;21.00;99.90
40374;DHT22;26079;45.958;12.492;2023-07-20T04:41:44;20.90;99.90
40374;DHT22;26079;45.958;12.492;2023-07-20T04:44:10;20.90;99.90
40374;DHT22;26079;45.958;12.492;2023-07-20T04:46:35;21.00;99.90
40374;DHT22;26079;45.958;12.492;2023-07-20T04:49:01;21.00;99.90
40374;DHT22;26079;45.958;12.492;2023-07-20T04:51:27;21.10;99.90
40374;DHT22;26079;45.958;12.492;2023-07-20T04:53:55;21.20;99.90
40374;DHT22;26079;45.958;12.492;2023-07-20T04:56:21;21.20;99.90
40374;DHT22;26079;45.958;12.492;2023-07-20T04:58:48;21.30;99.90
40374;DHT22;26079;45.958;12.492;2023-07-20T05:01:14;21.30;99.90
40374;DHT22;26079;45.958;12.492;2023-07-20T05:03:40;21.40;99.90
40374;DHT22;26079;45.958;12.492;2023-07-20T05:06:05;21.40;99.90
40374;DHT22;26079;45.958;12.492;2023-07-20T05:08:31;21.50;99.90
40374;DHT22;26079;45.958;12.492;2023-07-20T05:10:57;21.40;99.90
40374;DHT22;26079;45.958;12.492;2023-07-20T05:13:22;21.50;99.90
40374;DHT22;26079;45.958;12.492;2023-07-20T05:15:51;21.80;99.90
40374;DHT22;26079;45.958;12.492;2023-07-20T05:18:18;22.00;99.90
40374;DHT22;26079;45.958;12.492;2023-07-20T05:20:48;22.40;99.90
40374;DHT22;26079;45.958;12.492;2023-07-20T05:23:14;23.10;99.90
40374;DHT22;26079;45.958;12.492;2023-07-20T05:25:40;24.00;99.90
40374;DHT22;26079;45.958;12.492;2023-07-20T05:28:06;24.60;97.90
40374;DHT22;26079;45.958;12.492;2023-07-20T05:30:32;24.90;95.60
40374;DHT22;26079;45.958;12.492;2023-07-20T05:32:57;25.00;95.10
40374;DHT22;26079;45.958;12.492;2023-07-20T05:35:23;25.40;93.00
40374;DHT22;26079;45.958;12.492;2023-07-20T05:37:49;25.10;94.00
40374;DHT22;26079;45.958;12.492;2023-07-20T05:40:15;24.50;95.40
40374;DHT22;26079;45.958;12.492;2023-07-20T05:42:45;24.00;97.60
40374;DHT22;26079;45.958;12.492;2023-07-20T05:45:11;23.50;99.90
40374;DHT22;26079;45.958;12.492;2023-07-20T05:47:37;23.50;99.90
40374;DHT22;26079;45.958;12.492;2023-07-20T05:50:03;23.90;99.30
40374;DHT22;26079;45.958;12.492;2023-07-20T05:52:29;24.30;97.70
40374;DHT22;26079;45.958;12.492;2023-07-20T05:54:54;24.80;96.00
40374;DHT22;26079;45.958;12.492;2023-07-20T05:57:20;24.90;96.20
40374;DHT22;26079;45.958;12.492;2023-07-20T05:59:46;25.10;95.50
40374;DHT22;26079;45.958;12.492;2023-07-20T06:02:12;25.30;91.50
40374;DHT22;26079;45.958;12.492;2023-07-20T06:04:39;25.20;93.30
40374;DHT22;26079;45.958;12.492;2023-07-20T06:07:05;25.30;93.40
40374;DHT22;26079;45.958;12.492;2023-07-20T06:09:33;25.60;92.80
40374;DHT22;26079;45.958;12.492;2023-07-20T06:11:59;26.30;93.00
40374;DHT22;26079;45.958;12.492;2023-07-20T06:14:25;26.20;91.30
40374;DHT22;26079;45.958;12.492;2023-07-20T06:16:51;25.80;91.40
40374;DHT22;26079;45.958;12.492;2023-07-20T06:19:16;25.20;93.50
40374;DHT22;26079;45.958;12.492;2023-07-20T06:21:42;24.90;95.00
40374;DHT22;26079;45.958;12.492;2023-07-20T06:24:08;24.80;94.30
40374;DHT22;26079;45.958;12.492;2023-07-20T06:26:34;24.60;95.40
40374;DHT22;26079;45.958;12.492;2023-07-20T06:29:07;24.50;95.50
40374;DHT22;26079;45.958;12.492;2023-07-20T06:31:35;24.40;95.80
40374;DHT22;26079;45.958;12.492;2023-07-20T06:34:00;24.30;96.30
40374;DHT22;26079;45.958;12.492;2023-07-20T06:36:26;24.40;95.80
40374;DHT22;26079;45.958;12.492;2023-07-20T06:38:52;24.40;95.80
40374;DHT22;26079;45.958;12.492;2023-07-20T06:41:18;24.50;94.80
40374;DHT22;26079;45.958;12.492;2023-07-20T06:43:45;24.60;93.00
40374;DHT22;26079;45.958;12.492;2023-07-20T06:46:10;24.70;92.20
40374;DHT22;26079;45.958;12.492;2023-07-20T06:48:37;24.90;92.20
40374;DHT22;26079;45.958;12.492;2023-07-20T06:51:03;24.90;92.70
40374;DHT22;26079;45.958;12.492;2023-07-20T06:53:29;25.10;92.40
40374;DHT22;26079;45.958;12.492;2023-07-20T06:56:01;25.10;89.90
40374;DHT22;26079;45.958;12.492;2023-07-20T06:58:27;25.10;88.90
40374;DHT22;26079;45.958;12.492;2023-07-20T07:00:52;25.20;89.80
40374;DHT22;26079;45.958;12.492;2023-07-20T07:03:18;25.40;91.20
40374;DHT22;26079;45.958;12.492;2023-07-20T07:05:44;25.50;90.80
40374;DHT22;26079;45.958;12.492;2023-07-20T07:08:13;25.70;91.30
40374;DHT22;26079;45.958;12.492;2023-07-20T07:10:38;25.80;88.40
40374;DHT22;26079;45.958;12.492;2023-07-20T07:13:04;25.90;86.80
40374;DHT22;26079;45.958;12.492;2023-07-20T07:15:30;26.00;87.00
40374;DHT22;26079;45.958;12.492;2023-07-20T07:17:56;26.10;85.70
40374;DHT22;26079;45.958;12.492;2023-07-20T07:20:22;26.30;87.50
40374;DHT22;26079;45.958;12.492;2023-07-20T07:22:50;26.30;84.80
40374;DHT22;26079;45.958;12.492;2023-07-20T07:25:15;26.40;84.60
40374;DHT22;26079;45.958;12.492;2023-07-20T07:27:41;26.40;85.40
40374;DHT22;26079;45.958;12.492;2023-07-20T07:30:07;26.40;86.00
40374;DHT22;26079;45.958;12.492;2023-07-20T07:32:33;26.50;87.30
40374;DHT22;26079;45.958;12.492;2023-07-20T07:34:59;26.50;88.20
40374;DHT22;26079;45.958;12.492;2023-07-20T07:37:26;26.50;86.70
40374;DHT22;26079;45.958;12.492;2023-07-20T07:39:51;26.50;86.00
40374;DHT22;26079;45.958;12.492;2023-07-20T07:42:17;26.60;88.30
40374;DHT22;26079;45.958;12.492;2023-07-20T07:44:44;26.60;87.90
40374;DHT22;26079;45.958;12.492;2023-07-20T07:47:10;26.60;85.10
40374;DHT22;26079;45.958;12.492;2023-07-20T07:49:35;26.70;85.50
40374;DHT22;26079;45.958;12.492;2023-07-20T07:52:01;26.80;84.00
40374;DHT22;26079;45.958;12.492;2023-07-20T07:54:30;26.80;86.30
40374;DHT22;26079;45.958;12.492;2023-07-20T07:56:56;26.70;84.80
40374;DHT22;26079;45.958;12.492;2023-07-20T07:59:22;26.60;86.10
40374;DHT22;26079;45.958;12.492;2023-07-20T08:01:48;26.60;83.60
40374;DHT22;26079;45.958;12.492;2023-07-20T08:04:13;26.70;82.80
40374;DHT22;26079;45.958;12.492;2023-07-20T08:06:40;26.70;84.70
40374;DHT22;26079;45.958;12.492;2023-07-20T08:09:05;26.80;85.20
40374;DHT22;26079;45.958;12.492;2023-07-20T08:11:31;26.80;86.00
40374;DHT22;26079;45.958;12.492;2023-07-20T08:14:00;26.90;85.40
40374;DHT22;26079;45.958;12.492;2023-07-20T08:16:26;27.00;83.50
40374;DHT22;26079;45.958;12.492;2023-07-20T08:18:51;27.20;83.50
40374;DHT22;26079;45.958;12.492;2023-07-20T08:21:17;27.50;81.50
40374;DHT22;26079;45.958;12.492;2023-07-20T08:23:43;27.80;79.90
40374;DHT22;26079;45.958;12.492;2023-07-20T08:26:08;28.00;79.40
40374;DHT22;26079;45.958;12.492;2023-07-20T08:28:34;28.10;79.70
40374;DHT22;26079;45.958;12.492;2023-07-20T08:31:00;28.30;76.10
40374;DHT22;26079;45.958;12.492;2023-07-20T08:33:25;28.50;77.30
40374;DHT22;26079;45.958;12.492;2023-07-20T08:35:54;28.60;71.50
40374;DHT22;26079;45.958;12.492;2023-07-20T08:38:21;28.80;72.30
40374;DHT22;26079;45.958;12.492;2023-07-20T08:40:47;28.90;67.90
40374;DHT22;26079;45.958;12.492;2023-07-20T08:43:14;29.00;68.00
40374;DHT22;26079;45.958;12.492;2023-07-20T08:45:42;29.10;68.00
40374;DHT22;26079;45.958;12.492;2023-07-20T08:48:10;29.20;68.60
40374;DHT22;26079;45.958;12.492;2023-07-20T08:50:37;29.40;68.20
40374;DHT22;26079;45.958;12.492;2023-07-20T08:53:03;29.40;66.30
40374;DHT22;26079;45.958;12.492;2023-07-20T08:55:29;29.40;66.40
40374;DHT22;26079;45.958;12.492;2023-07-20T08:57:57;29.60;64.60
40374;DHT22;26079;45.958;12.492;2023-07-20T09:00:24;29.60;66.10
40374;DHT22;26079;45.958;12.492;2023-07-20T09:02:53;29.70;66.70
40374;DHT22;26079;45.958;12.492;2023-07-20T09:05:19;29.80;63.80
40374;DHT22;26079;45.958;12.492;2023-07-20T09:07:45;29.90;65.40
40374;DHT22;26079;45.958;12.492;2023-07-20T09:10:12;29.90;66.40
40374;DHT22;26079;45.958;12.492;2023-07-20T09:12:42;30.00;63.30
40374;DHT22;26079;45.958;12.492;2023-07-20T09:15:10;30.10;62.60
40374;DHT22;26079;45.958;12.492;2023-07-20T09:17:36;30.20;64.90
40374;DHT22;26079;45.958;12.492;2023-07-20T09:20:08;30.30;63.90
40374;DHT22;26079;45.958;12.492;2023-07-20T09:22:37;30.30;66.10
40374;DHT22;26079;45.958;12.492;2023-07-20T09:27:39;30.40;63.80
40374;DHT22;26079;45.958;12.492;2023-07-20T09:30:06;30.40;63.60
40374;DHT22;26079;45.958;12.492;2023-07-20T09:32:56;30.40;64.20
40374;DHT22;26079;45.958;12.492;2023-07-20T09:35:23;30.50;61.80
40374;DHT22;26079;45.958;12.492;2023-07-20T09:37:58;30.50;61.20
40374;DHT22;26079;45.958;12.492;2023-07-20T09:40:25;30.50;61.80
40374;DHT22;26079;45.958;12.492;2023-07-20T09:42:53;30.60;62.70
40374;DHT22;26079;45.958;12.492;2023-07-20T09:45:30;30.70;61.40
40374;DHT22;26079;45.958;12.492;2023-07-20T09:48:04;30.80;59.70
40374;DHT22;26079;45.958;12.492;2023-07-20T09:50:30;30.90;58.90
40374;DHT22;26079;45.958;12.492;2023-07-20T09:52:56;30.80;60.40
40374;DHT22;26079;45.958;12.492;2023-07-20T09:55:23;30.80;60.30
40374;DHT22;26079;45.958;12.492;2023-07-20T09:57:49;30.80;59.40
40374;DHT22;26079;45.958;12.492;2023-07-20T10:00:16;31.00;58.70
40374;DHT22;26079;45.958;12.492;2023-07-20T10:02:44;31.10;60.50
40374;DHT22;26079;45.958;12.492;2023-07-20T10:05:12;31.10;61.00
40374;DHT22;26079;45.958;12.492;2023-07-20T10:07:46;31.20;62.20
40374;DHT22;26079;45.958;12.492;2023-07-20T10:10:15;31.20;60.50
40374;DHT22;26079;45.958;12.492;2023-07-20T10:12:42;31.20;57.50
40374;DHT22;26079;45.958;12.492;2023-07-20T10:15:13;31.30;59.50
40374;DHT22;26079;45.958;12.492;2023-07-20T10:17:49;31.20;59.90
40374;DHT22;26079;45.958;12.492;2023-07-20T10:20:19;31.20;57.60
40374;DHT22;26079;45.958;12.492;2023-07-20T10:22:48;31.10;58.20
40374;DHT22;26079;45.958;12.492;2023-07-20T10:25:16;31.10;58.40
40374;DHT22;26079;45.958;12.492;2023-07-20T10:27:42;31.20;59.90
40374;DHT22;26079;45.958;12.492;2023-07-20T10:30:08;31.20;59.20
40374;DHT22;26079;45.958;12.492;2023-07-20T10:32:35;31.30;60.20
40374;DHT22;26079;45.958;12.492;2023-07-20T10:35:00;31.40;57.40
40374;DHT22;26079;45.958;12.492;2023-07-20T10:37:49;31.40;58.90
40374;DHT22;26079;45.958;12.492;2023-07-20T10:42:51;31.50;59.40
40374;DHT22;26079;45.958;12.492;2023-07-20T10:45:19;31.60;56.30
40374;DHT22;26079;45.958;12.492;2023-07-20T10:47:46;31.60;57.80
40374;DHT22;26079;45.958;12.492;2023-07-20T10:50:12;31.50;58.10
40374;DHT22;26079;45.958;12.492;2023-07-20T10:52:39;31.50;58.30
40374;DHT22;26079;45.958;12.492;2023-07-20T10:55:15;31.50;59.70
40374;DHT22;26079;45.958;12.492;2023-07-20T10:57:42;31.50;60.40
40374;DHT22;26079;45.958;12.492;2023-07-20T11:00:09;31.60;60.40
40374;DHT22;26079;45.958;12.492;2023-07-20T11:02:48;31.60;58.20
40374;DHT22;26079;45.958;12.492;2023-07-20T11:05:38;31.60;56.80
40374;DHT22;26079;45.958;12.492;2023-07-20T11:08:11;31.50;58.00
40374;DHT22;26079;45.958;12.492;2023-07-20T11:10:38;31.40;57.40
40374;DHT22;26079;45.958;12.492;2023-07-20T11:18:18;31.60;58.40
40374;DHT22;26079;45.958;12.492;2023-07-20T11:20:44;31.60;59.60
40374;DHT22;26079;45.958;12.492;2023-07-20T11:23:16;31.50;60.50
40374;DHT22;26079;45.958;12.492;2023-07-20T11:25:41;31.60;60.60
40374;DHT22;26079;45.958;12.492;2023-07-20T11:28:08;31.70;61.80
40374;DHT22;26079;45.958;12.492;2023-07-20T11:30:40;31.70;58.10
40374;DHT22;26079;45.958;12.492;2023-07-20T11:33:08;31.70;58.20
40374;DHT22;26079;45.958;12.492;2023-07-20T11:35:44;31.70;56.80
40374;DHT22;26079;45.958;12.492;2023-07-20T11:38:12;31.70;57.10
40374;DHT22;26079;45.958;12.492;2023-07-20T11:40:45;31.80;58.60
40374;DHT22;26079;45.958;12.492;2023-07-20T11:43:12;31.80;58.40
40374;DHT22;26079;45.958;12.492;2023-07-20T11:45:39;31.80;58.30
40374;DHT22;26079;45.958;12.492;2023-07-20T11:48:05;31.80;60.10
40374;DHT22;26079;45.958;12.492;2023-07-20T11:50:31;31.90;59.80
40374;DHT22;26079;45.958;12.492;2023-07-20T11:52:57;31.90;59.90
40374;DHT22;26079;45.958;12.492;2023-07-20T11:55:23;31.80;61.90
40374;DHT22;26079;45.958;12.492;2023-07-20T11:58:05;31.80;59.50
40374;DHT22;26079;45.958;12.492;2023-07-20T12:00:32;31.80;59.80
40374;DHT22;26079;45.958;12.492;2023-07-20T12:02:59;31.80;61.40
40374;DHT22;26079;45.958;12.492;2023-07-20T12:05:25;31.80;61.10
40374;DHT22;26079;45.958;12.492;2023-07-20T12:07:51;31.80;61.80
40374;DHT22;26079;45.958;12.492;2023-07-20T12:10:24;31.90;61.50
40374;DHT22;26079;45.958;12.492;2023-07-20T12:12:50;31.90;61.50
40374;DHT22;26079;45.958;12.492;2023-07-20T12:15:21;32.00;61.60
40374;DHT22;26079;45.958;12.492;2023-07-20T12:17:49;32.00;60.50
40374;DHT22;26079;45.958;12.492;2023-07-20T12:20:29;32.00;59.90
40374;DHT22;26079;45.958;12.492;2023-07-20T12:23:04;31.90;58.40
40374;DHT22;26079;45.958;12.492;2023-07-20T12:28:01;31.90;61.00
40374;DHT22;26079;45.958;12.492;2023-07-20T12:30:28;31.90;60.10
40374;DHT22;26079;45.958;12.492;2023-07-20T12:32:54;32.10;61.80
40374;DHT22;26079;45.958;12.492;2023-07-20T12:35:19;32.00;57.90
40374;DHT22;26079;45.958;12.492;2023-07-20T12:37:45;31.90;60.30
40374;DHT22;26079;45.958;12.492;2023-07-20T12:40:14;32.00;59.60
40374;DHT22;26079;45.958;12.492;2023-07-20T12:42:40;32.00;59.70
40374;DHT22;26079;45.958;12.492;2023-07-20T12:45:06;32.10;59.90
40374;DHT22;26079;45.958;12.492;2023-07-20T12:47:32;32.00;58.50
40374;DHT22;26079;45.958;12.492;2023-07-20T12:49:57;32.00;59.70
40374;DHT22;26079;45.958;12.492;2023-07-20T12:52:23;32.10;62.00
40374;DHT22;26079;45.958;12.492;2023-07-20T12:54:49;32.00;60.90
40374;DHT22;26079;45.958;12.492;2023-07-20T12:57:14;32.10;60.20
40374;DHT22;26079;45.958;12.492;2023-07-20T12:59:40;32.10;60.00
40374;DHT22;26079;45.958;12.492;2023-07-20T13:02:06;32.20;60.00
40374;DHT22;26079;45.958;12.492;2023-07-20T13:04:31;32.20;60.80
40374;DHT22;26079;45.958;12.492;2023-07-20T13:06:57;32.40;58.40
40374;DHT22;26079;45.958;12.492;2023-07-20T13:09:24;32.40;60.20
40374;DHT22;26079;45.958;12.492;2023-07-20T13:11:50;32.40;58.50
40374;DHT22;26079;45.958;12.492;2023-07-20T13:14:28;32.40;58.30
40374;DHT22;26079;45.958;12.492;2023-07-20T13:16:55;32.40;58.60
40374;DHT22;26079;45.958;12.492;2023-07-20T13:19:21;32.40;57.90
40374;DHT22;26079;45.958;12.492;2023-07-20T13:21:48;32.40;58.40
40374;DHT22;26079;45.958;12.492;2023-07-20T13:24:14;32.60;56.70
40374;DHT22;26079;45.958;12.492;2023-07-20T13:26:39;32.60;59.50
40374;DHT22;26079;45.958;12.492;2023-07-20T13:29:05;32.50;58.20
40374;DHT22;26079;45.958;12.492;2023-07-20T13:31:31;32.50;57.60
40374;DHT22;26079;45.958;12.492;2023-07-20T13:33:57;32.40;56.90
40374;DHT22;26079;45.958;12.492;2023-07-20T13:36:24;32.30;56.80
40374;DHT22;26079;45.958;12.492;2023-07-20T13:38:49;32.30;57.10
40374;DHT22;26079;45.958;12.492;2023-07-20T13:41:15;32.40;57.10
40374;DHT22;26079;45.958;12.492;2023-07-20T13:43:43;32.40;57.80
40374;DHT22;26079;45.958;12.492;2023-07-20T13:46:09;32.50;57.90
40374;DHT22;26079;45.958;12.492;2023-07-20T13:48:35;32.50;58.90
40374;DHT22;26079;45.958;12.492;2023-07-20T13:51:00;32.50;58.30
40374;DHT22;26079;45.958;12.492;2023-07-20T13:53:26;32.60;57.90
40374;DHT22;26079;45.958;12.492;2023-07-20T13:55:53;32.60;57.80
40374;DHT22;26079;45.958;12.492;2023-07-20T13:58:19;32.50;57.20
40374;DHT22;26079;45.958;12.492;2023-07-20T14:00:44;32.40;56.30
40374;DHT22;26079;45.958;12.492;2023-07-20T14:03:10;32.30;56.80
40374;DHT22;26079;45.958;12.492;2023-07-20T14:05:36;32.30;57.00
40374;DHT22;26079;45.958;12.492;2023-07-20T14:08:01;32.30;58.00
40374;DHT22;26079;45.958;12.492;2023-07-20T14:10:27;32.40;58.20
40374;DHT22;26079;45.958;12.492;2023-07-20T14:12:53;32.60;57.80
40374;DHT22;26079;45.958;12.492;2023-07-20T14:15:18;32.60;57.80
40374;DHT22;26079;45.958;12.492;2023-07-20T14:17:45;32.60;57.40
40374;DHT22;26079;45.958;12.492;2023-07-20T14:20:11;32.60;58.30
40374;DHT22;26079;45.958;12.492;2023-07-20T14:22:40;32.60;58.40
40374;DHT22;26079;45.958;12.492;2023-07-20T14:25:07;32.60;58.50
40374;DHT22;26079;45.958;12.492;2023-07-20T14:27:33;32.50;58.40
40374;DHT22;26079;45.958;12.492;2023-07-20T14:29:59;32.50;59.20
40374;DHT22;26079;45.958;12.492;2023-07-20T14:32:24;32.60;59.50
40374;DHT22;26079;45.958;12.492;2023-07-20T14:34:50;32.60;58.70
40374;DHT22;26079;45.958;12.492;2023-07-20T14:37:16;32.60;56.50
40374;DHT22;26079;45.958;12.492;2023-07-20T14:39:42;32.60;57.30
40374;DHT22;26079;45.958;12.492;2023-07-20T14:42:08;32.60;58.90
40374;DHT22;26079;45.958;12.492;2023-07-20T14:44:33;32.50;58.70
40374;DHT22;26079;45.958;12.492;2023-07-20T14:46:59;32.50;59.10
40374;DHT22;26079;45.958;12.492;2023-07-20T14:49:28;32.50;58.20
40374;DHT22;26079;45.958;12.492;2023-07-20T14:51:54;32.50;58.80
40374;DHT22;26079;45.958;12.492;2023-07-20T14:54:20;32.50;60.00
40374;DHT22;26079;45.958;12.492;2023-07-20T14:56:50;32.60;61.30
40374;DHT22;26079;45.958;12.492;2023-07-20T14:59:19;32.60;60.20
40374;DHT22;26079;45.958;12.492;2023-07-20T15:01:45;32.60;61.40
40374;DHT22;26079;45.958;12.492;2023-07-20T15:04:14;32.50;61.40
40374;DHT22;26079;45.958;12.492;2023-07-20T15:06:41;32.40;60.30
40374;DHT22;26079;45.958;12.492;2023-07-20T15:09:06;32.40;62.30
40374;DHT22;26079;45.958;12.492;2023-07-20T15:11:33;32.30;59.70
40374;DHT22;26079;45.958;12.492;2023-07-20T15:13:59;32.30;60.40
40374;DHT22;26079;45.958;12.492;2023-07-20T15:16:25;32.30;60.70
40374;DHT22;26079;45.958;12.492;2023-07-20T15:18:51;32.20;59.50
40374;DHT22;26079;45.958;12.492;2023-07-20T15:21:16;32.30;59.30
40374;DHT22;26079;45.958;12.492;2023-07-20T15:23:43;32.30;59.10
40374;DHT22;26079;45.958;12.492;2023-07-20T15:26:08;32.30;59.80
40374;DHT22;26079;45.958;12.492;2023-07-20T15:28:36;32.40;60.90
40374;DHT22;26079;45.958;12.492;2023-07-20T15:31:03;32.40;59.30
40374;DHT22;26079;45.958;12.492;2023-07-20T15:33:29;32.40;57.40
40374;DHT22;26079;45.958;12.492;2023-07-20T15:35:56;32.50;59.10
40374;DHT22;26079;45.958;12.492;2023-07-20T15:38:21;32.50;60.20
40374;DHT22;26079;45.958;12.492;2023-07-20T15:40:49;32.50;57.60